sensor_id;sensor_type;location;lat;lon;timestamp;P1;durP1;ratioP1;P2;durP2;ratioP2
43891;SDS011;29555;45.350;5.578;2024-03-07T00:02:17;9.05;;;4.18;;
43891;SDS011;29555;45.350;5.578;2024-03-07T00:04:42;8.35;;;3.85;;
43891;SDS011;29555;45.350;5.578;2024-03-07T00:07:08;6.13;;;2.38;;
43891;SDS011;29555;45.350;5.578;2024-03-07T00:09:34;7.28;;;3.10;;
43891;SDS011;29555;45.350;5.578;2024-03-07T00:12:00;5.63;;;3.42;;
43891;SDS011;29555;45.350;5.578;2024-03-07T00:14:26;5.63;;;2.30;;
43891;SDS011;29555;45.350;5.578;2024-03-07T00:16:55;5.35;;;1.85;;
43891;SDS011;29555;45.350;5.578;2024-03-07T00:19:21;2.28;;;1.77;;
43891;SDS011;29555;45.350;5.578;2024-03-07T00:21:50;8.52;;;3.80;;
43891;SDS011;29555;45.350;5.578;2024-03-07T00:24:16;4.07;;;1.38;;
43891;SDS011;29555;45.350;5.578;2024-03-07T00:26:42;9.70;;;2.88;;
43891;SDS011;29555;45.350;5.578;2024-03-07T00:29:07;5.07;;;2.15;;
43891;SDS011;29555;45.350;5.578;2024-03-07T00:31:32;16.20;;;6.22;;
43891;SDS011;29555;45.350;5.578;2024-03-07T00:33:58;31.10;;;10.13;;
43891;SDS011;29555;45.350;5.578;2024-03-07T00:36:24;71.38;;;24.40;;
43891;SDS011;29555;45.350;5.578;2024-03-07T00:38:49;41.95;;;16.00;;
43891;SDS011;29555;45.350;5.578;2024-03-07T00:41:15;41.13;;;13.10;;
43891;SDS011;29555;45.350;5.578;2024-03-07T00:43:42;49.17;;;19.63;;
43891;SDS011;29555;45.350;5.578;2024-03-07T00:46:07;154.95;;;49.70;;
43891;SDS011;29555;45.350;5.578;2024-03-07T00:48:33;46.30;;;19.13;;
43891;SDS011;29555;45.350;5.578;2024-03-07T00:50:58;13.30;;;7.55;;
43891;SDS011;29555;45.350;5.578;2024-03-07T00:53:24;15.55;;;5.40;;
43891;SDS011;29555;45.350;5.578;2024-03-07T00:55:49;12.75;;;5.07;;
43891;SDS011;29555;45.350;5.578;2024-03-07T00:58:14;9.68;;;4.35;;
43891;SDS011;29555;45.350;5.578;2024-03-07T01:00:40;6.00;;;3.95;;
43891;SDS011;29555;45.350;5.578;2024-03-07T01:03:09;4.38;;;2.63;;
43891;SDS011;29555;45.350;5.578;2024-03-07T01:05:39;6.70;;;2.55;;
43891;SDS011;29555;45.350;5.578;2024-03-07T01:08:05;3.90;;;2.85;;
43891;SDS011;29555;45.350;5.578;2024-03-07T01:10:30;4.07;;;2.80;;
43891;SDS011;29555;45.350;5.578;2024-03-07T01:12:56;8.73;;;4.70;;
43891;SDS011;29555;45.350;5.578;2024-03-07T01:15:26;6.90;;;3.95;;
43891;SDS011;29555;45.350;5.578;2024-03-07T01:17:52;6.43;;;3.88;;
43891;SDS011;29555;45.350;5.578;2024-03-07T01:20:17;6.25;;;3.70;;
43891;SDS011;29555;45.350;5.578;2024-03-07T01:22:43;4.13;;;3.05;;
43891;SDS011;29555;45.350;5.578;2024-03-07T01:25:08;8.75;;;2.88;;
43891;SDS011;29555;45.350;5.578;2024-03-07T01:27:34;4.97;;;2.40;;
43891;SDS011;29555;45.350;5.578;2024-03-07T01:30:00;4.85;;;2.25;;
43891;SDS011;29555;45.350;5.578;2024-03-07T01:32:26;18.38;;;10.60;;
43891;SDS011;29555;45.350;5.578;2024-03-07T01:34:53;12.27;;;5.47;;
43891;SDS011;29555;45.350;5.578;2024-03-07T01:37:19;5.70;;;3.83;;
43891;SDS011;29555;45.350;5.578;2024-03-07T01:39:47;9.60;;;4.20;;
43891;SDS011;29555;45.350;5.578;2024-03-07T01:42:19;6.90;;;3.63;;
43891;SDS011;29555;45.350;5.578;2024-03-07T01:44:44;3.30;;;2.22;;
43891;SDS011;29555;45.350;5.578;2024-03-07T01:47:12;4.00;;;1.92;;
43891;SDS011;29555;45.350;5.578;2024-03-07T01:49:39;2.58;;;2.28;;
43891;SDS011;29555;45.350;5.578;2024-03-07T01:52:05;4.53;;;2.13;;
43891;SDS011;29555;45.350;5.578;2024-03-07T01:54:31;2.58;;;1.33;;
43891;SDS011;29555;45.350;5.578;2024-03-07T01:56:57;4.13;;;2.08;;
43891;SDS011;29555;45.350;5.578;2024-03-07T01:59:23;3.63;;;2.83;;
43891;SDS011;29555;45.350;5.578;2024-03-07T02:01:49;6.68;;;1.95;;
43891;SDS011;29555;45.350;5.578;2024-03-07T02:04:15;4.72;;;2.03;;
43891;SDS011;29555;45.350;5.578;2024-03-07T02:06:41;8.13;;;2.78;;
43891;SDS011;29555;45.350;5.578;2024-03-07T02:09:06;11.75;;;3.17;;
43891;SDS011;29555;45.350;5.578;2024-03-07T02:11:32;4.43;;;2.15;;
43891;SDS011;29555;45.350;5.578;2024-03-07T02:13:57;3.40;;;2.30;;
43891;SDS011;29555;45.350;5.578;2024-03-07T02:16:23;2.15;;;1.83;;
43891;SDS011;29555;45.350;5.578;2024-03-07T02:18:49;6.93;;;2.63;;
43891;SDS011;29555;45.350;5.578;2024-03-07T02:21:15;4.18;;;1.95;;
43891;SDS011;29555;45.350;5.578;2024-03-07T02:23:41;10.88;;;1.95;;
43891;SDS011;29555;45.350;5.578;2024-03-07T02:26:06;2.20;;;1.63;;
43891;SDS011;29555;45.350;5.578;2024-03-07T02:28:33;6.50;;;2.92;;
43891;SDS011;29555;45.350;5.578;2024-03-07T02:30:59;4.18;;;2.50;;
43891;SDS011;29555;45.350;5.578;2024-03-07T02:33:25;11.52;;;7.57;;
43891;SDS011;29555;45.350;5.578;2024-03-07T02:35:50;9.40;;;3.85;;
43891;SDS011;29555;45.350;5.578;2024-03-07T02:38:16;9.82;;;3.63;;
43891;SDS011;29555;45.350;5.578;2024-03-07T02:40:43;5.43;;;2.92;;
43891;SDS011;29555;45.350;5.578;2024-03-07T02:43:08;5.68;;;2.50;;
43891;SDS011;29555;45.350;5.578;2024-03-07T02:45:33;6.68;;;2.17;;
43891;SDS011;29555;45.350;5.578;2024-03-07T02:47:59;3.50;;;2.30;;
43891;SDS011;29555;45.350;5.578;2024-03-07T02:50:24;4.80;;;2.33;;
43891;SDS011;29555;45.350;5.578;2024-03-07T02:52:50;3.15;;;1.83;;
43891;SDS011;29555;45.350;5.578;2024-03-07T02:55:17;6.28;;;2.10;;
43891;SDS011;29555;45.350;5.578;2024-03-07T02:57:44;2.53;;;1.88;;
43891;SDS011;29555;45.350;5.578;2024-03-07T03:00:11;2.78;;;2.13;;
43891;SDS011;29555;45.350;5.578;2024-03-07T03:02:51;2.45;;;1.15;;
43891;SDS011;29555;45.350;5.578;2024-03-07T03:05:17;3.90;;;2.28;;
43891;SDS011;29555;45.350;5.578;2024-03-07T03:07:44;6.25;;;2.08;;
43891;SDS011;29555;45.350;5.578;2024-03-07T03:10:16;5.10;;;2.67;;
43891;SDS011;29555;45.350;5.578;2024-03-07T03:12:46;8.60;;;2.28;;
43891;SDS011;29555;45.350;5.578;2024-03-07T03:15:12;2.95;;;1.80;;
43891;SDS011;29555;45.350;5.578;2024-03-07T03:17:46;5.97;;;2.78;;
43891;SDS011;29555;45.350;5.578;2024-03-07T03:20:13;5.72;;;2.28;;
43891;SDS011;29555;45.350;5.578;2024-03-07T03:22:58;3.67;;;1.60;;
43891;SDS011;29555;45.350;5.578;2024-03-07T03:25:24;2.45;;;1.48;;
43891;SDS011;29555;45.350;5.578;2024-03-07T03:27:49;2.78;;;1.27;;
43891;SDS011;29555;45.350;5.578;2024-03-07T03:30:15;7.13;;;2.33;;
43891;SDS011;29555;45.350;5.578;2024-03-07T03:32:47;2.53;;;1.48;;
43891;SDS011;29555;45.350;5.578;2024-03-07T03:35:13;3.67;;;1.92;;
43891;SDS011;29555;45.350;5.578;2024-03-07T03:37:45;8.20;;;4.10;;
43891;SDS011;29555;45.350;5.578;2024-03-07T03:40:32;2.20;;;1.48;;
43891;SDS011;29555;45.350;5.578;2024-03-07T03:43:02;3.50;;;2.00;;
43891;SDS011;29555;45.350;5.578;2024-03-07T03:45:32;2.38;;;1.55;;
43891;SDS011;29555;45.350;5.578;2024-03-07T03:47:59;5.00;;;1.88;;
43891;SDS011;29555;45.350;5.578;2024-03-07T03:50:28;2.83;;;2.08;;
43891;SDS011;29555;45.350;5.578;2024-03-07T03:52:53;2.60;;;1.80;;
43891;SDS011;29555;45.350;5.578;2024-03-07T03:55:19;8.65;;;2.55;;
43891;SDS011;29555;45.350;5.578;2024-03-07T03:57:45;5.20;;;2.25;;
43891;SDS011;29555;45.350;5.578;2024-03-07T04:00:12;2.45;;;1.60;;
43891;SDS011;29555;45.350;5.578;2024-03-07T04:02:44;2.50;;;1.83;;
43891;SDS011;29555;45.350;5.578;2024-03-07T04:05:16;4.13;;;1.83;;
43891;SDS011;29555;45.350;5.578;2024-03-07T04:07:44;3.17;;;1.70;;
43891;SDS011;29555;45.350;5.578;2024-03-07T04:10:10;2.53;;;1.73;;
43891;SDS011;29555;45.350;5.578;2024-03-07T04:12:36;4.60;;;2.05;;
43891;SDS011;29555;45.350;5.578;2024-03-07T04:15:12;6.20;;;2.80;;
43891;SDS011;29555;45.350;5.578;2024-03-07T04:18:02;3.75;;;2.10;;
43891;SDS011;29555;45.350;5.578;2024-03-07T04:20:28;2.75;;;1.65;;
43891;SDS011;29555;45.350;5.578;2024-03-07T04:22:53;4.25;;;2.60;;
43891;SDS011;29555;45.350;5.578;2024-03-07T04:25:21;2.28;;;1.67;;
43891;SDS011;29555;45.350;5.578;2024-03-07T04:27:46;6.93;;;1.40;;
43891;SDS011;29555;45.350;5.578;2024-03-07T04:30:14;2.20;;;1.92;;
43891;SDS011;29555;45.350;5.578;2024-03-07T04:32:41;4.15;;;2.30;;
43891;SDS011;29555;45.350;5.578;2024-03-07T04:35:07;3.03;;;2.25;;
43891;SDS011;29555;45.350;5.578;2024-03-07T04:37:36;3.03;;;2.00;;
43891;SDS011;29555;45.350;5.578;2024-03-07T04:40:05;2.38;;;1.85;;
43891;SDS011;29555;45.350;5.578;2024-03-07T04:42:52;2.55;;;1.98;;
43891;SDS011;29555;45.350;5.578;2024-03-07T04:45:19;3.85;;;2.53;;
43891;SDS011;29555;45.350;5.578;2024-03-07T04:47:45;2.22;;;2.03;;
43891;SDS011;29555;45.350;5.578;2024-03-07T04:50:12;4.25;;;2.47;;
43891;SDS011;29555;45.350;5.578;2024-03-07T04:52:38;2.00;;;1.60;;
43891;SDS011;29555;45.350;5.578;2024-03-07T04:55:07;1.88;;;1.67;;
43891;SDS011;29555;45.350;5.578;2024-03-07T04:57:37;3.45;;;1.73;;
43891;SDS011;29555;45.350;5.578;2024-03-07T05:00:05;1.95;;;1.83;;
43891;SDS011;29555;45.350;5.578;2024-03-07T05:02:38;3.80;;;1.98;;
43891;SDS011;29555;45.350;5.578;2024-03-07T05:05:04;4.43;;;2.25;;
43891;SDS011;29555;45.350;5.578;2024-03-07T05:07:30;2.65;;;2.28;;
43891;SDS011;29555;45.350;5.578;2024-03-07T05:09:55;9.30;;;3.55;;
43891;SDS011;29555;45.350;5.578;2024-03-07T05:12:20;6.53;;;3.15;;
43891;SDS011;29555;45.350;5.578;2024-03-07T05:14:46;4.85;;;2.83;;
43891;SDS011;29555;45.350;5.578;2024-03-07T05:17:11;10.23;;;3.35;;
43891;SDS011;29555;45.350;5.578;2024-03-07T05:19:37;3.30;;;2.70;;
43891;SDS011;29555;45.350;5.578;2024-03-07T05:22:02;2.47;;;2.10;;
43891;SDS011;29555;45.350;5.578;2024-03-07T05:24:31;3.05;;;2.45;;
43891;SDS011;29555;45.350;5.578;2024-03-07T05:27:00;3.80;;;2.67;;
43891;SDS011;29555;45.350;5.578;2024-03-07T05:29:25;4.53;;;2.65;;
43891;SDS011;29555;45.350;5.578;2024-03-07T05:31:52;3.83;;;1.55;;
43891;SDS011;29555;45.350;5.578;2024-03-07T05:34:17;9.25;;;3.08;;
43891;SDS011;29555;45.350;5.578;2024-03-07T05:36:48;8.30;;;4.00;;
43891;SDS011;29555;45.350;5.578;2024-03-07T05:39:14;8.02;;;5.68;;
43891;SDS011;29555;45.350;5.578;2024-03-07T05:41:41;4.03;;;3.13;;
43891;SDS011;29555;45.350;5.578;2024-03-07T05:44:07;2.83;;;2.15;;
43891;SDS011;29555;45.350;5.578;2024-03-07T05:46:39;6.07;;;2.58;;
43891;SDS011;29555;45.350;5.578;2024-03-07T05:49:14;4.00;;;2.30;;
43891;SDS011;29555;45.350;5.578;2024-03-07T05:51:40;5.07;;;2.45;;
43891;SDS011;29555;45.350;5.578;2024-03-07T05:54:10;2.28;;;2.00;;
43891;SDS011;29555;45.350;5.578;2024-03-07T05:56:37;2.83;;;1.70;;
43891;SDS011;29555;45.350;5.578;2024-03-07T05:59:03;5.30;;;2.67;;
43891;SDS011;29555;45.350;5.578;2024-03-07T06:01:30;2.97;;;2.30;;
43891;SDS011;29555;45.350;5.578;2024-03-07T06:03:58;6.50;;;2.30;;
43891;SDS011;29555;45.350;5.578;2024-03-07T06:06:24;3.08;;;1.90;;
43891;SDS011;29555;45.350;5.578;2024-03-07T06:08:49;3.33;;;1.90;;
43891;SDS011;29555;45.350;5.578;2024-03-07T06:11:15;4.97;;;2.08;;
43891;SDS011;29555;45.350;5.578;2024-03-07T06:13:45;4.32;;;2.00;;
43891;SDS011;29555;45.350;5.578;2024-03-07T06:16:11;3.13;;;2.03;;
43891;SDS011;29555;45.350;5.578;2024-03-07T06:18:36;4.40;;;2.40;;
43891;SDS011;29555;45.350;5.578;2024-03-07T06:21:02;3.40;;;2.47;;
43891;SDS011;29555;45.350;5.578;2024-03-07T06:23:29;3.00;;;1.63;;
43891;SDS011;29555;45.350;5.578;2024-03-07T06:25:55;2.40;;;2.20;;
43891;SDS011;29555;45.350;5.578;2024-03-07T06:28:23;7.53;;;2.33;;
43891;SDS011;29555;45.350;5.578;2024-03-07T06:30:49;2.55;;;1.98;;
43891;SDS011;29555;45.350;5.578;2024-03-07T06:33:14;4.15;;;2.25;;
43891;SDS011;29555;45.350;5.578;2024-03-07T06:35:41;9.00;;;2.67;;
43891;SDS011;29555;45.350;5.578;2024-03-07T06:38:08;3.03;;;1.90;;
43891;SDS011;29555;45.350;5.578;2024-03-07T06:40:37;2.75;;;2.20;;
43891;SDS011;29555;45.350;5.578;2024-03-07T06:43:05;4.05;;;2.78;;
43891;SDS011;29555;45.350;5.578;2024-03-07T06:45:35;5.07;;;2.28;;
43891;SDS011;29555;45.350;5.578;2024-03-07T06:48:02;4.22;;;2.25;;
43891;SDS011;29555;45.350;5.578;2024-03-07T06:50:37;2.42;;;1.52;;
43891;SDS011;29555;45.350;5.578;2024-03-07T06:53:03;1.42;;;1.33;;
43891;SDS011;29555;45.350;5.578;2024-03-07T06:55:32;4.72;;;1.88;;
43891;SDS011;29555;45.350;5.578;2024-03-07T06:57:58;3.83;;;2.15;;
43891;SDS011;29555;45.350;5.578;2024-03-07T07:00:25;2.92;;;2.30;;
43891;SDS011;29555;45.350;5.578;2024-03-07T07:02:51;3.65;;;1.95;;
43891;SDS011;29555;45.350;5.578;2024-03-07T07:05:18;6.22;;;1.42;;
43891;SDS011;29555;45.350;5.578;2024-03-07T07:07:46;1.83;;;1.70;;
43891;SDS011;29555;45.350;5.578;2024-03-07T07:10:13;2.70;;;2.47;;
43891;SDS011;29555;45.350;5.578;2024-03-07T07:12:46;4.90;;;2.60;;
43891;SDS011;29555;45.350;5.578;2024-03-07T07:15:13;3.85;;;2.88;;
43891;SDS011;29555;45.350;5.578;2024-03-07T07:17:45;5.60;;;3.28;;
43891;SDS011;29555;45.350;5.578;2024-03-07T07:20:12;5.22;;;2.83;;
43891;SDS011;29555;45.350;5.578;2024-03-07T07:22:42;7.57;;;2.90;;
43891;SDS011;29555;45.350;5.578;2024-03-07T07:25:08;3.65;;;2.33;;
43891;SDS011;29555;45.350;5.578;2024-03-07T07:27:41;2.47;;;1.92;;
43891;SDS011;29555;45.350;5.578;2024-03-07T07:30:08;4.43;;;2.55;;
43891;SDS011;29555;45.350;5.578;2024-03-07T07:32:35;7.55;;;2.97;;
43891;SDS011;29555;45.350;5.578;2024-03-07T07:35:02;8.52;;;2.88;;
43891;SDS011;29555;45.350;5.578;2024-03-07T07:37:28;3.70;;;2.65;;
43891;SDS011;29555;45.350;5.578;2024-03-07T07:39:53;4.43;;;2.55;;
43891;SDS011;29555;45.350;5.578;2024-03-07T07:42:19;2.42;;;2.20;;
43891;SDS011;29555;45.350;5.578;2024-03-07T07:44:45;3.60;;;3.25;;
43891;SDS011;29555;45.350;5.578;2024-03-07T07:47:10;4.43;;;2.28;;
43891;SDS011;29555;45.350;5.578;2024-03-07T07:49:37;3.88;;;2.20;;
43891;SDS011;29555;45.350;5.578;2024-03-07T07:52:03;3.10;;;1.75;;
43891;SDS011;29555;45.350;5.578;2024-03-07T07:54:29;5.38;;;2.75;;
43891;SDS011;29555;45.350;5.578;2024-03-07T07:56:55;3.67;;;1.05;;
43891;SDS011;29555;45.350;5.578;2024-03-07T07:59:20;3.20;;;1.67;;
43891;SDS011;29555;45.350;5.578;2024-03-07T08:01:46;3.38;;;1.63;;
43891;SDS011;29555;45.350;5.578;2024-03-07T08:04:11;2.97;;;2.05;;
43891;SDS011;29555;45.350;5.578;2024-03-07T08:06:37;12.95;;;5.47;;
43891;SDS011;29555;45.350;5.578;2024-03-07T08:09:03;28.25;;;10.80;;
43891;SDS011;29555;45.350;5.578;2024-03-07T08:11:33;38.85;;;13.45;;
43891;SDS011;29555;45.350;5.578;2024-03-07T08:14:00;18.85;;;8.10;;
43891;SDS011;29555;45.350;5.578;2024-03-07T08:16:26;19.77;;;9.90;;
43891;SDS011;29555;45.350;5.578;2024-03-07T08:18:51;16.05;;;9.18;;
43891;SDS011;29555;45.350;5.578;2024-03-07T08:21:16;8.18;;;5.65;;
43891;SDS011;29555;45.350;5.578;2024-03-07T08:23:42;15.32;;;8.68;;
43891;SDS011;29555;45.350;5.578;2024-03-07T08:26:07;30.75;;;16.67;;
43891;SDS011;29555;45.350;5.578;2024-03-07T08:28:32;34.42;;;16.25;;
43891;SDS011;29555;45.350;5.578;2024-03-07T08:30:58;53.83;;;20.80;;
43891;SDS011;29555;45.350;5.578;2024-03-07T08:33:24;13.32;;;7.60;;
43891;SDS011;29555;45.350;5.578;2024-03-07T08:35:49;44.40;;;20.27;;
43891;SDS011;29555;45.350;5.578;2024-03-07T08:38:18;29.30;;;12.43;;
43891;SDS011;29555;45.350;5.578;2024-03-07T08:40:43;46.58;;;22.02;;
43891;SDS011;29555;45.350;5.578;2024-03-07T08:43:09;12.32;;;8.95;;
43891;SDS011;29555;45.350;5.578;2024-03-07T08:45:35;9.70;;;4.95;;
43891;SDS011;29555;45.350;5.578;2024-03-07T08:48:02;4.07;;;3.20;;
43891;SDS011;29555;45.350;5.578;2024-03-07T08:50:33;8.88;;;4.15;;
43891;SDS011;29555;45.350;5.578;2024-03-07T08:52:59;3.33;;;2.97;;
43891;SDS011;29555;45.350;5.578;2024-03-07T08:55:25;5.93;;;2.97;;
43891;SDS011;29555;45.350;5.578;2024-03-07T08:57:51;7.97;;;3.38;;
43891;SDS011;29555;45.350;5.578;2024-03-07T09:00:17;6.57;;;3.80;;
43891;SDS011;29555;45.350;5.578;2024-03-07T09:02:49;8.32;;;5.20;;
43891;SDS011;29555;45.350;5.578;2024-03-07T09:05:19;9.13;;;4.65;;
43891;SDS011;29555;45.350;5.578;2024-03-07T09:07:47;5.20;;;2.58;;
43891;SDS011;29555;45.350;5.578;2024-03-07T09:10:13;6.72;;;4.65;;
43891;SDS011;29555;45.350;5.578;2024-03-07T09:12:42;4.43;;;2.85;;
43891;SDS011;29555;45.350;5.578;2024-03-07T09:15:08;11.13;;;4.15;;
43891;SDS011;29555;45.350;5.578;2024-03-07T09:17:37;12.00;;;6.65;;
43891;SDS011;29555;45.350;5.578;2024-03-07T09:20:06;6.25;;;4.18;;
43891;SDS011;29555;45.350;5.578;2024-03-07T09:22:33;7.90;;;4.25;;
43891;SDS011;29555;45.350;5.578;2024-03-07T09:24:59;9.98;;;5.43;;
43891;SDS011;29555;45.350;5.578;2024-03-07T09:27:24;13.15;;;5.20;;
43891;SDS011;29555;45.350;5.578;2024-03-07T09:29:50;8.52;;;3.33;;
43891;SDS011;29555;45.350;5.578;2024-03-07T09:32:16;15.38;;;6.75;;
43891;SDS011;29555;45.350;5.578;2024-03-07T09:34:42;3.60;;;2.70;;
43891;SDS011;29555;45.350;5.578;2024-03-07T09:37:07;7.80;;;3.42;;
43891;SDS011;29555;45.350;5.578;2024-03-07T09:39:33;16.30;;;5.97;;
43891;SDS011;29555;45.350;5.578;2024-03-07T09:42:00;5.97;;;2.95;;
43891;SDS011;29555;45.350;5.578;2024-03-07T09:44:26;4.68;;;2.08;;
43891;SDS011;29555;45.350;5.578;2024-03-07T09:46:54;6.28;;;2.83;;
43891;SDS011;29555;45.350;5.578;2024-03-07T09:49:21;6.05;;;2.05;;
43891;SDS011;29555;45.350;5.578;2024-03-07T09:51:47;2.88;;;1.73;;
43891;SDS011;29555;45.350;5.578;2024-03-07T09:54:22;4.50;;;2.60;;
43891;SDS011;29555;45.350;5.578;2024-03-07T09:56:54;5.53;;;3.08;;
43891;SDS011;29555;45.350;5.578;2024-03-07T09:59:21;3.38;;;2.00;;
43891;SDS011;29555;45.350;5.578;2024-03-07T10:01:51;2.08;;;1.85;;
43891;SDS011;29555;45.350;5.578;2024-03-07T10:04:24;3.97;;;1.38;;
43891;SDS011;29555;45.350;5.578;2024-03-07T10:07:14;3.42;;;1.83;;
43891;SDS011;29555;45.350;5.578;2024-03-07T10:09:40;3.40;;;2.03;;
43891;SDS011;29555;45.350;5.578;2024-03-07T10:12:06;2.80;;;1.83;;
43891;SDS011;29555;45.350;5.578;2024-03-07T10:14:37;1.35;;;1.25;;
43891;SDS011;29555;45.350;5.578;2024-03-07T10:17:03;9.75;;;2.15;;
43891;SDS011;29555;45.350;5.578;2024-03-07T10:19:29;2.53;;;2.03;;
43891;SDS011;29555;45.350;5.578;2024-03-07T10:21:55;4.45;;;1.58;;
43891;SDS011;29555;45.350;5.578;2024-03-07T10:24:26;2.65;;;2.15;;
43891;SDS011;29555;45.350;5.578;2024-03-07T10:26:53;4.50;;;1.38;;
43891;SDS011;29555;45.350;5.578;2024-03-07T10:29:22;1.88;;;1.73;;
43891;SDS011;29555;45.350;5.578;2024-03-07T10:31:49;1.63;;;1.38;;
43891;SDS011;29555;45.350;5.578;2024-03-07T10:34:15;4.90;;;1.83;;
43891;SDS011;29555;45.350;5.578;2024-03-07T10:36:42;7.00;;;2.47;;
43891;SDS011;29555;45.350;5.578;2024-03-07T10:39:08;3.40;;;2.92;;
43891;SDS011;29555;45.350;5.578;2024-03-07T10:41:46;2.25;;;1.65;;
43891;SDS011;29555;45.350;5.578;2024-03-07T10:44:20;2.85;;;1.27;;
43891;SDS011;29555;45.350;5.578;2024-03-07T10:46:53;13.90;;;2.00;;
43891;SDS011;29555;45.350;5.578;2024-03-07T10:49:19;2.22;;;1.20;;
43891;SDS011;29555;45.350;5.578;2024-03-07T10:51:53;2.97;;;1.42;;
43891;SDS011;29555;45.350;5.578;2024-03-07T10:54:48;1.27;;;0.93;;
43891;SDS011;29555;45.350;5.578;2024-03-07T10:57:30;7.22;;;1.27;;
43891;SDS011;29555;45.350;5.578;2024-03-07T11:00:02;1.23;;;1.15;;
43891;SDS011;29555;45.350;5.578;2024-03-07T11:02:49;1.20;;;1.10;;
43891;SDS011;29555;45.350;5.578;2024-03-07T11:05:18;2.03;;;1.70;;
43891;SDS011;29555;45.350;5.578;2024-03-07T11:07:45;10.88;;;1.10;;
43891;SDS011;29555;45.350;5.578;2024-03-07T11:10:12;7.50;;;1.33;;
43891;SDS011;29555;45.350;5.578;2024-03-07T11:12:39;2.30;;;1.00;;
43891;SDS011;29555;45.350;5.578;2024-03-07T11:15:06;3.13;;;0.50;;
43891;SDS011;29555;45.350;5.578;2024-03-07T11:17:40;1.27;;;1.10;;
43891;SDS011;29555;45.350;5.578;2024-03-07T11:20:23;6.72;;;1.25;;
43891;SDS011;29555;45.350;5.578;2024-03-07T11:22:50;1.90;;;1.40;;
43891;SDS011;29555;45.350;5.578;2024-03-07T11:25:19;12.82;;;7.18;;
43891;SDS011;29555;45.350;5.578;2024-03-07T11:30:24;1.95;;;1.63;;
43891;SDS011;29555;45.350;5.578;2024-03-07T11:32:50;1.30;;;0.95;;
43891;SDS011;29555;45.350;5.578;2024-03-07T11:35:19;1.75;;;1.17;;
43891;SDS011;29555;45.350;5.578;2024-03-07T11:37:55;4.50;;;2.30;;
43891;SDS011;29555;45.350;5.578;2024-03-07T11:42:49;3.88;;;1.90;;
43891;SDS011;29555;45.350;5.578;2024-03-07T11:45:19;2.05;;;1.30;;
43891;SDS011;29555;45.350;5.578;2024-03-07T11:47:57;37.42;;;13.05;;
43891;SDS011;29555;45.350;5.578;2024-03-07T11:50:34;5.00;;;3.63;;
43891;SDS011;29555;45.350;5.578;2024-03-07T11:53:08;5.03;;;3.25;;
43891;SDS011;29555;45.350;5.578;2024-03-07T11:55:38;55.58;;;17.40;;
43891;SDS011;29555;45.350;5.578;2024-03-07T11:58:17;24.40;;;9.48;;
43891;SDS011;29555;45.350;5.578;2024-03-07T12:00:48;27.70;;;12.13;;
43891;SDS011;29555;45.350;5.578;2024-03-07T12:03:16;28.95;;;13.40;;
43891;SDS011;29555;45.350;5.578;2024-03-07T12:05:50;28.40;;;10.45;;
43891;SDS011;29555;45.350;5.578;2024-03-07T12:08:17;11.13;;;6.10;;
43891;SDS011;29555;45.350;5.578;2024-03-07T12:10:43;8.25;;;2.90;;
43891;SDS011;29555;45.350;5.578;2024-03-07T12:13:12;21.90;;;8.98;;
43891;SDS011;29555;45.350;5.578;2024-03-07T12:15:44;3.35;;;2.55;;
43891;SDS011;29555;45.350;5.578;2024-03-07T12:18:10;2.60;;;1.60;;
43891;SDS011;29555;45.350;5.578;2024-03-07T12:20:40;1.90;;;1.55;;
43891;SDS011;29555;45.350;5.578;2024-03-07T12:23:06;1.67;;;1.58;;
43891;SDS011;29555;45.350;5.578;2024-03-07T12:25:37;1.48;;;1.38;;
43891;SDS011;29555;45.350;5.578;2024-03-07T12:28:11;3.05;;;1.67;;
43891;SDS011;29555;45.350;5.578;2024-03-07T12:30:51;2.95;;;1.65;;
43891;SDS011;29555;45.350;5.578;2024-03-07T12:33:20;4.35;;;1.67;;
43891;SDS011;29555;45.350;5.578;2024-03-07T12:35:48;9.63;;;5.03;;
43891;SDS011;29555;45.350;5.578;2024-03-07T12:38:17;2.97;;;1.40;;
43891;SDS011;29555;45.350;5.578;2024-03-07T12:40:43;4.28;;;1.90;;
43891;SDS011;29555;45.350;5.578;2024-03-07T12:48:15;1.88;;;1.67;;
43891;SDS011;29555;45.350;5.578;2024-03-07T12:50:46;2.40;;;2.05;;
43891;SDS011;29555;45.350;5.578;2024-03-07T12:53:18;2.63;;;1.47;;
43891;SDS011;29555;45.350;5.578;2024-03-07T12:55:54;2.17;;;1.17;;
43891;SDS011;29555;45.350;5.578;2024-03-07T12:58:19;1.55;;;1.00;;
43891;SDS011;29555;45.350;5.578;2024-03-07T13:00:47;1.50;;;1.40;;
43891;SDS011;29555;45.350;5.578;2024-03-07T13:03:12;0.60;;;0.60;;
43891;SDS011;29555;45.350;5.578;2024-03-07T13:05:40;2.22;;;1.10;;
43891;SDS011;29555;45.350;5.578;2024-03-07T13:08:07;4.85;;;1.05;;
43891;SDS011;29555;45.350;5.578;2024-03-07T13:10:36;5.45;;;1.02;;
43891;SDS011;29555;45.350;5.578;2024-03-07T13:13:03;4.55;;;0.70;;
43891;SDS011;29555;45.350;5.578;2024-03-07T13:15:29;7.45;;;0.68;;
43891;SDS011;29555;45.350;5.578;2024-03-07T13:17:55;13.55;;;7.82;;
43891;SDS011;29555;45.350;5.578;2024-03-07T13:20:20;7.35;;;2.85;;
43891;SDS011;29555;45.350;5.578;2024-03-07T13:22:51;1.20;;;0.82;;
43891;SDS011;29555;45.350;5.578;2024-03-07T13:25:17;2.75;;;1.52;;
43891;SDS011;29555;45.350;5.578;2024-03-07T13:28:29;0.98;;;0.43;;
43891;SDS011;29555;45.350;5.578;2024-03-07T13:30:41;4.63;;;2.33;;
43891;SDS011;29555;45.350;5.578;2024-03-07T13:33:08;1.67;;;1.38;;
43891;SDS011;29555;45.350;5.578;2024-03-07T13:35:37;1.42;;;0.85;;
43891;SDS011;29555;45.350;5.578;2024-03-07T13:38:04;3.30;;;1.10;;
43891;SDS011;29555;45.350;5.578;2024-03-07T13:40:31;0.43;;;0.30;;
43891;SDS011;29555;45.350;5.578;2024-03-07T13:43:00;1.02;;;0.60;;
43891;SDS011;29555;45.350;5.578;2024-03-07T13:45:36;7.65;;;1.58;;
43891;SDS011;29555;45.350;5.578;2024-03-07T13:48:04;4.20;;;0.63;;
43891;SDS011;29555;45.350;5.578;2024-03-07T13:50:31;2.95;;;0.75;;
43891;SDS011;29555;45.350;5.578;2024-03-07T13:52:59;0.22;;;0.22;;
43891;SDS011;29555;45.350;5.578;2024-03-07T14:23:01;2.72;;;0.88;;
43891;SDS011;29555;45.350;5.578;2024-03-07T14:25:54;0.57;;;0.57;;
43891;SDS011;29555;45.350;5.578;2024-03-07T14:30:56;3.10;;;1.00;;
43891;SDS011;29555;45.350;5.578;2024-03-07T14:33:27;0.68;;;0.50;;
43891;SDS011;29555;45.350;5.578;2024-03-07T14:36:02;0.80;;;0.60;;
43891;SDS011;29555;45.350;5.578;2024-03-07T14:38:30;1.00;;;0.60;;
43891;SDS011;29555;45.350;5.578;2024-03-07T14:41:03;8.10;;;1.08;;
43891;SDS011;29555;45.350;5.578;2024-03-07T14:43:28;2.65;;;1.35;;
43891;SDS011;29555;45.350;5.578;2024-03-07T14:45:54;0.47;;;0.45;;
43891;SDS011;29555;45.350;5.578;2024-03-07T14:48:20;2.35;;;1.23;;
43891;SDS011;29555;45.350;5.578;2024-03-07T14:50:45;1.10;;;1.00;;
43891;SDS011;29555;45.350;5.578;2024-03-07T14:53:12;1.65;;;0.60;;
43891;SDS011;29555;45.350;5.578;2024-03-07T14:55:41;2.28;;;1.27;;
43891;SDS011;29555;45.350;5.578;2024-03-07T14:58:08;1.02;;;0.93;;
43891;SDS011;29555;45.350;5.578;2024-03-07T15:00:35;0.85;;;0.85;;
43891;SDS011;29555;45.350;5.578;2024-03-07T15:03:10;0.77;;;0.70;;
43891;SDS011;29555;45.350;5.578;2024-03-07T15:08:05;0.47;;;0.47;;
43891;SDS011;29555;45.350;5.578;2024-03-07T15:10:32;3.60;;;1.45;;
43891;SDS011;29555;45.350;5.578;2024-03-07T15:12:59;4.68;;;1.08;;
43891;SDS011;29555;45.350;5.578;2024-03-07T15:15:25;0.63;;;0.40;;
43891;SDS011;29555;45.350;5.578;2024-03-07T15:17:53;1.00;;;0.63;;
43891;SDS011;29555;45.350;5.578;2024-03-07T15:20:19;1.88;;;0.70;;
43891;SDS011;29555;45.350;5.578;2024-03-07T15:22:54;1.73;;;0.85;;
43891;SDS011;29555;45.350;5.578;2024-03-07T15:25:27;0.88;;;0.75;;
43891;SDS011;29555;45.350;5.578;2024-03-07T15:27:55;2.03;;;1.25;;
43891;SDS011;29555;45.350;5.578;2024-03-07T15:30:22;2.72;;;1.92;;
43891;SDS011;29555;45.350;5.578;2024-03-07T15:32:50;2.17;;;1.35;;
43891;SDS011;29555;45.350;5.578;2024-03-07T15:35:16;1.02;;;0.75;;